createdAt,value
2022-10-01T00:00:05.672Z,1000.57
2022-10-01T00:01:05.597Z,1000.64
2022-10-01T00:02:06.340Z,1000.61
2022-10-01T00:03:05.748Z,1000.58
2022-10-01T00:04:05.507Z,1000.62
2022-10-01T00:05:05.594Z,1000.59
2022-10-01T00:06:05.526Z,1000.57
2022-10-01T00:07:05.502Z,1000.59
2022-10-01T00:08:06.060Z,1000.55
2022-10-01T00:09:05.504Z,1000.57
2022-10-01T00:10:05.472Z,1000.54
2022-10-01T00:11:05.519Z,1000.54
2022-10-01T00:12:05.647Z,1000.51
2022-10-01T00:13:05.438Z,1000.51
2022-10-01T00:14:05.567Z,1000.54
2022-10-01T00:15:06.276Z,1000.51
2022-10-01T00:16:05.410Z,1000.50
2022-10-01T00:17:05.647Z,1000.52
2022-10-01T00:18:05.385Z,1000.51
2022-10-01T00:19:05.460Z,1000.45
2022-10-01T00:20:14.039Z,1000.46
2022-10-01T00:21:05.365Z,1000.40
2022-10-01T00:22:05.809Z,1000.48
2022-10-01T00:23:05.353Z,1000.44
2022-10-01T00:24:05.913Z,1000.40
2022-10-01T00:25:05.385Z,1000.42
2022-10-01T00:26:05.315Z,1000.38
2022-10-01T00:27:05.327Z,1000.40
2022-10-01T00:28:05.384Z,1000.38
2022-10-01T00:29:05.525Z,1000.27
2022-10-01T00:30:05.228Z,1000.36
2022-10-01T00:31:05.547Z,1000.29
2022-10-01T00:32:06.845Z,1000.39
2022-10-01T00:33:05.194Z,1000.29
2022-10-01T00:34:06.377Z,1000.32
2022-10-01T00:35:06.572Z,1000.33
2022-10-01T00:36:05.709Z,1000.31
2022-10-01T00:37:05.909Z,1000.29
2022-10-01T00:38:05.383Z,1000.30
2022-10-01T00:39:05.306Z,1000.29
2022-10-01T00:40:05.730Z,1000.24
2022-10-01T00:41:05.405Z,1000.29
2022-10-01T00:42:05.246Z,1000.33
2022-10-01T00:43:05.846Z,1000.26
2022-10-01T00:44:05.348Z,1000.29
2022-10-01T00:45:05.616Z,1000.25
2022-10-01T00:46:05.453Z,1000.23
2022-10-01T00:47:05.785Z,1000.22
2022-10-01T00:48:05.227Z,1000.19
2022-10-01T00:49:05.364Z,1000.18
2022-10-01T00:50:06.998Z,1000.18
2022-10-01T00:51:05.142Z,1000.14
2022-10-01T00:52:05.472Z,1000.10
2022-10-01T00:53:05.103Z,1000.08
2022-10-01T00:54:05.190Z,1000.05
2022-10-01T00:55:06.171Z,1000.00
2022-10-01T00:56:05.402Z,999.97
2022-10-01T00:57:05.729Z,999.92
2022-10-01T00:58:05.439Z,999.92
2022-10-01T00:59:04.995Z,999.84
2022-10-01T01:00:05.051Z,999.84
2022-10-01T01:02:28.136Z,999.77
2022-10-01T01:03:29.099Z,999.71
2022-10-01T01:04:29.141Z,999.68
2022-10-01T01:05:29.045Z,999.66
2022-10-01T01:06:29.059Z,999.66
2022-10-01T01:07:29.051Z,999.64
2022-10-01T01:08:29.030Z,999.60
2022-10-01T01:09:29.018Z,999.67
2022-10-01T01:10:29.042Z,999.65
2022-10-01T01:11:28.978Z,999.71
2022-10-01T01:12:28.984Z,999.74
2022-10-01T01:13:28.973Z,999.76
2022-10-01T01:14:28.958Z,999.78
2022-10-01T01:15:28.964Z,999.73
2022-10-01T01:16:28.993Z,999.75
2022-10-01T01:17:28.931Z,999.72
2022-10-01T01:18:28.928Z,999.66
2022-10-01T01:19:28.896Z,999.61
2022-10-01T01:20:28.930Z,999.58
2022-10-01T01:21:28.918Z,999.59
2022-10-01T01:22:28.883Z,999.60
2022-10-01T01:23:28.861Z,999.55
2022-10-01T01:24:28.881Z,999.54
2022-10-01T01:25:28.840Z,999.52
2022-10-01T01:26:28.839Z,999.53
2022-10-01T01:27:28.823Z,999.50
2022-10-01T01:28:28.889Z,999.52
2022-10-01T01:29:28.816Z,999.43
2022-10-01T01:30:28.806Z,999.46
2022-10-01T01:31:28.869Z,999.41
2022-10-01T01:32:28.805Z,999.45
2022-10-01T01:33:28.764Z,999.38
2022-10-01T01:34:28.743Z,999.36
2022-10-01T01:35:28.735Z,999.30
2022-10-01T01:36:28.732Z,999.29
2022-10-01T01:37:28.788Z,999.30
2022-10-01T01:38:28.719Z,999.23
2022-10-01T01:39:28.696Z,999.15
2022-10-01T01:40:28.701Z,999.18
2022-10-01T01:41:28.685Z,999.14
2022-10-01T01:42:28.682Z,999.13
2022-10-01T01:43:28.673Z,999.18
2022-10-01T01:44:28.643Z,999.11
2022-10-01T01:45:28.785Z,999.08
2022-10-01T01:46:28.629Z,999.05
2022-10-01T01:47:29.041Z,999.02
2022-10-01T01:48:28.624Z,999.00
2022-10-01T01:49:28.577Z,998.98
2022-10-01T01:50:28.588Z,999.00
2022-10-01T01:51:28.557Z,998.99
2022-10-01T01:52:28.577Z,998.99
2022-10-01T01:53:28.540Z,999.02
2022-10-01T01:54:28.561Z,999.04
2022-10-01T01:55:28.533Z,999.05
2022-10-01T01:56:28.528Z,999.04
2022-10-01T01:57:28.513Z,999.01
2022-10-01T01:58:28.501Z,999.00
2022-10-01T01:59:28.489Z,998.94
2022-10-01T02:00:28.489Z,998.92
2022-10-01T02:01:28.536Z,998.85
2022-10-01T02:02:28.633Z,998.85
2022-10-01T02:03:28.430Z,998.80
2022-10-01T02:04:28.450Z,998.79
2022-10-01T02:05:28.409Z,998.75
2022-10-01T02:06:28.418Z,998.75
2022-10-01T02:07:28.442Z,998.78
2022-10-01T02:08:28.409Z,998.72
2022-10-01T02:09:28.376Z,998.66
2022-10-01T02:10:28.382Z,998.68
2022-10-01T02:11:28.358Z,998.65
2022-10-01T02:12:28.552Z,998.56
2022-10-01T02:13:28.338Z,998.59
2022-10-01T02:14:28.320Z,998.61
2022-10-01T02:15:28.375Z,998.54
2022-10-01T02:16:28.396Z,998.56
2022-10-01T02:17:28.295Z,998.56
2022-10-01T02:18:28.277Z,998.54
2022-10-01T02:19:28.303Z,998.55
2022-10-01T02:20:28.281Z,998.56
2022-10-01T02:21:28.252Z,998.56
2022-10-01T02:22:28.257Z,998.56
2022-10-01T02:23:28.286Z,998.59
2022-10-01T02:24:28.222Z,998.58
2022-10-01T02:25:28.207Z,998.59
2022-10-01T02:26:28.228Z,998.61
2022-10-01T02:27:28.186Z,998.61
2022-10-01T02:28:28.260Z,998.63
2022-10-01T02:29:28.208Z,998.63
2022-10-01T02:30:28.170Z,998.56
2022-10-01T02:31:28.165Z,998.58
2022-10-01T02:32:28.191Z,998.58
2022-10-01T02:33:28.160Z,998.55
2022-10-01T02:34:28.111Z,998.53
2022-10-01T02:35:28.106Z,998.53
2022-10-01T02:36:28.164Z,998.47
2022-10-01T02:37:28.084Z,998.44
2022-10-01T02:38:28.072Z,998.39
2022-10-01T02:39:28.081Z,998.32
2022-10-01T02:40:28.093Z,998.30
2022-10-01T02:41:28.048Z,998.25
2022-10-01T02:42:28.082Z,998.20
2022-10-01T02:43:28.083Z,998.20
2022-10-01T02:44:27.996Z,998.17
2022-10-01T02:45:28.062Z,998.14
2022-10-01T02:46:28.137Z,998.11
2022-10-01T02:47:27.975Z,998.06
2022-10-01T02:48:28.176Z,997.96
2022-10-01T02:49:30.749Z,997.83
2022-10-01T02:50:28.023Z,997.76
2022-10-01T02:51:27.976Z,997.72
2022-10-01T02:52:27.993Z,997.71
2022-10-01T02:53:27.960Z,997.65
2022-10-01T02:54:27.912Z,997.61
2022-10-01T02:55:27.863Z,997.56
2022-10-01T02:56:27.928Z,997.54
2022-10-01T02:57:27.891Z,997.49
2022-10-01T02:58:27.868Z,997.55
2022-10-01T02:59:27.836Z,997.53
2022-10-01T03:00:27.845Z,997.51
2022-10-01T03:01:27.831Z,997.47
2022-10-01T03:02:27.897Z,997.36
2022-10-01T03:03:28.107Z,997.16
2022-10-01T03:04:27.815Z,997.09
2022-10-01T03:05:27.886Z,996.97
2022-10-01T03:06:27.806Z,996.89
2022-10-01T03:07:27.769Z,996.84
2022-10-01T03:08:27.803Z,996.77
2022-10-01T03:09:27.780Z,996.82
2022-10-01T03:10:27.767Z,996.85
2022-10-01T03:11:27.694Z,996.93
2022-10-01T03:12:27.775Z,997.06
2022-10-01T03:13:27.808Z,997.20
2022-10-01T03:14:27.664Z,997.27
2022-10-01T03:15:27.703Z,997.42
2022-10-01T03:16:27.740Z,997.38
2022-10-01T03:17:27.682Z,997.38
2022-10-01T03:18:27.667Z,997.32
2022-10-01T03:19:27.639Z,997.30
2022-10-01T03:20:27.691Z,997.26
2022-10-01T03:21:27.617Z,997.23
2022-10-01T03:22:27.584Z,997.17
2022-10-01T03:23:27.560Z,997.13
2022-10-01T03:24:27.612Z,997.12
2022-10-01T03:25:27.582Z,997.08
2022-10-01T03:26:27.547Z,997.11
2022-10-01T03:27:27.521Z,997.06
2022-10-01T03:28:27.602Z,997.11
2022-10-01T03:29:27.503Z,997.03
2022-10-01T03:30:27.528Z,997.09
2022-10-01T03:31:27.555Z,996.95
2022-10-01T03:32:27.467Z,996.98
2022-10-01T03:33:27.447Z,996.98
2022-10-01T03:34:27.508Z,997.00
2022-10-01T03:35:27.429Z,996.99
2022-10-01T03:36:27.429Z,996.90
2022-10-01T03:37:27.432Z,996.93
2022-10-01T03:38:27.448Z,996.98
2022-10-01T03:39:27.433Z,996.94
2022-10-01T03:40:27.396Z,996.89
2022-10-01T03:41:27.360Z,996.89
2022-10-01T03:42:27.379Z,996.84
2022-10-01T03:43:27.346Z,996.85
2022-10-01T03:44:27.349Z,996.90
2022-10-01T03:45:27.335Z,996.90
2022-10-01T03:46:27.330Z,996.89
2022-10-01T03:47:27.297Z,996.77
2022-10-01T03:48:27.344Z,996.63
2022-10-01T03:49:27.288Z,996.70
2022-10-01T03:50:27.317Z,996.72
2022-10-01T03:51:27.258Z,996.70
2022-10-01T03:52:27.266Z,996.71
2022-10-01T03:53:27.266Z,996.69
2022-10-01T03:54:27.224Z,996.65
2022-10-01T03:55:27.204Z,996.62
2022-10-01T03:56:27.207Z,996.65
2022-10-01T03:57:27.266Z,996.62
2022-10-01T03:58:27.185Z,996.61
2022-10-01T03:59:27.224Z,996.66
2022-10-01T04:00:27.198Z,996.67
2022-10-01T04:01:27.208Z,996.71
2022-10-01T04:02:27.336Z,996.67
2022-10-01T04:03:27.141Z,996.62
2022-10-01T04:04:27.214Z,996.69
2022-10-01T04:05:27.131Z,996.77
2022-10-01T04:06:27.157Z,996.74
2022-10-01T04:07:27.102Z,996.68
2022-10-01T04:08:27.170Z,996.71
2022-10-01T04:09:27.099Z,996.59
2022-10-01T04:10:27.202Z,996.51
2022-10-01T04:11:27.053Z,996.52
2022-10-01T04:12:27.121Z,996.60
2022-10-01T04:13:27.039Z,996.47
2022-10-01T04:14:27.091Z,996.53
2022-10-01T04:15:27.018Z,996.54
2022-10-01T04:16:27.076Z,996.63
2022-10-01T04:17:27.043Z,996.66
2022-10-01T04:18:27.270Z,996.63
2022-10-01T04:19:26.980Z,996.59
2022-10-01T04:20:26.999Z,996.56
2022-10-01T04:21:26.960Z,996.59
2022-10-01T04:22:27.004Z,996.66
2022-10-01T04:23:26.945Z,996.60
2022-10-01T04:24:27.034Z,996.56
2022-10-01T04:25:26.894Z,996.59
2022-10-01T04:26:26.891Z,996.57
2022-10-01T04:27:26.913Z,996.60
2022-10-01T04:28:26.963Z,996.66
2022-10-01T04:29:26.902Z,996.62
2022-10-01T04:30:26.884Z,996.65
2022-10-01T04:31:27.170Z,996.62
2022-10-01T04:32:26.843Z,996.55
2022-10-01T04:33:26.830Z,996.53
2022-10-01T04:34:26.833Z,996.56
2022-10-01T04:35:26.790Z,996.55
2022-10-01T04:36:26.789Z,996.51
2022-10-01T04:37:26.785Z,996.54
2022-10-01T04:38:26.753Z,996.48
2022-10-01T04:39:26.741Z,996.45
2022-10-01T04:40:26.787Z,996.44
2022-10-01T04:41:26.708Z,996.43
2022-10-01T04:42:26.745Z,996.42
2022-10-01T04:43:26.701Z,996.43
2022-10-01T04:44:26.692Z,996.44
2022-10-01T04:45:26.675Z,996.38
2022-10-01T04:46:26.749Z,996.35
2022-10-01T04:47:26.641Z,996.37
2022-10-01T04:48:26.641Z,996.35
2022-10-01T04:49:26.661Z,996.31
2022-10-01T04:50:26.636Z,996.32
2022-10-01T04:51:26.609Z,996.31
2022-10-01T04:52:26.600Z,996.43
2022-10-01T04:53:26.575Z,996.45
2022-10-01T04:54:26.566Z,996.41
2022-10-01T04:55:26.601Z,996.45
2022-10-01T04:56:26.571Z,996.49
2022-10-01T04:57:26.568Z,996.50
2022-10-01T04:58:26.526Z,996.48
2022-10-01T04:59:26.557Z,996.53
2022-10-01T05:00:26.513Z,996.50
2022-10-01T05:01:26.580Z,996.37
2022-10-01T05:02:26.568Z,996.43
2022-10-01T05:03:26.456Z,996.44
2022-10-01T05:04:26.474Z,996.47
2022-10-01T05:05:26.459Z,996.48
2022-10-01T05:06:26.455Z,996.55
2022-10-01T05:07:26.479Z,996.65
2022-10-01T05:08:26.410Z,996.63
2022-10-01T05:09:26.420Z,996.55
2022-10-01T05:10:26.400Z,996.52
2022-10-01T05:11:26.405Z,996.47
2022-10-01T05:12:26.393Z,996.49
2022-10-01T05:13:26.368Z,996.50
2022-10-01T05:14:26.349Z,996.53
2022-10-01T05:15:26.354Z,996.56
2022-10-01T05:16:26.408Z,996.60
2022-10-01T05:17:26.295Z,996.63
2022-10-01T05:18:26.269Z,996.65
2022-10-01T05:19:28.089Z,996.66
2022-10-01T05:20:26.220Z,996.72
2022-10-01T05:21:26.267Z,996.69
2022-10-01T05:22:26.233Z,996.72
2022-10-01T05:23:26.224Z,996.76
2022-10-01T05:24:26.237Z,996.77
2022-10-01T05:25:26.366Z,996.79
2022-10-01T05:26:26.234Z,996.73
2022-10-01T05:27:26.214Z,996.70
2022-10-01T05:28:26.218Z,996.71
2022-10-01T05:29:26.216Z,996.75
2022-10-01T05:30:26.142Z,996.77
2022-10-01T05:31:26.239Z,996.78
2022-10-01T05:32:26.133Z,996.83
2022-10-01T05:33:26.120Z,996.83
2022-10-01T05:34:26.090Z,996.84
2022-10-01T05:35:26.093Z,996.88
2022-10-01T05:36:26.039Z,996.91
2022-10-01T05:37:26.100Z,996.88
2022-10-01T05:38:26.054Z,996.90
2022-10-01T05:39:26.053Z,996.89
2022-10-01T05:40:26.027Z,996.87
2022-10-01T05:41:26.029Z,996.93
2022-10-01T05:42:25.993Z,996.98
2022-10-01T05:43:26.013Z,996.94
2022-10-01T05:44:25.964Z,996.98
2022-10-01T05:45:26.035Z,996.94
2022-10-01T05:46:25.974Z,996.93
2022-10-01T05:47:25.942Z,996.93
2022-10-01T05:48:25.932Z,996.93
2022-10-01T05:49:25.962Z,996.92
2022-10-01T05:50:25.907Z,996.98
2022-10-01T05:51:25.898Z,996.95
2022-10-01T05:52:25.876Z,996.97
2022-10-01T05:53:25.888Z,997.00
2022-10-01T05:54:25.871Z,997.00
2022-10-01T05:55:25.883Z,997.01
2022-10-01T05:56:25.838Z,996.98
2022-10-01T05:57:25.849Z,997.03
2022-10-01T05:58:25.822Z,996.99
2022-10-01T05:59:31.014Z,997.00
2022-10-01T06:00:25.815Z,997.01
2022-10-01T06:01:25.791Z,997.01
2022-10-01T06:02:25.897Z,997.06
2022-10-01T06:03:25.769Z,997.03
2022-10-01T06:04:25.791Z,997.07
2022-10-01T06:05:25.772Z,997.07
2022-10-01T06:06:25.726Z,997.09
2022-10-01T06:07:25.721Z,997.03
2022-10-01T06:08:25.728Z,997.06
2022-10-01T06:09:25.851Z,997.08
2022-10-01T06:10:25.706Z,997.11
2022-10-01T06:11:25.691Z,997.14
2022-10-01T06:12:25.688Z,997.09
2022-10-01T06:13:25.681Z,997.10
2022-10-01T06:14:25.683Z,997.09
2022-10-01T06:15:25.682Z,997.12
2022-10-01T06:16:25.659Z,997.09
2022-10-01T06:17:25.653Z,997.12
2022-10-01T06:18:25.615Z,997.07
2022-10-01T06:19:25.651Z,997.09
2022-10-01T06:20:25.617Z,997.10
2022-10-01T06:21:25.599Z,997.09
2022-10-01T06:22:25.571Z,997.10
2022-10-01T06:23:25.575Z,997.10
2022-10-01T06:24:25.554Z,997.13
2022-10-01T06:25:25.527Z,997.21
2022-10-01T06:26:25.554Z,997.19
2022-10-01T06:27:25.510Z,997.19
2022-10-01T06:28:25.661Z,997.16
2022-10-01T06:29:25.490Z,997.16
2022-10-01T06:30:25.462Z,997.18
2022-10-01T06:31:25.543Z,997.21
2022-10-01T06:32:25.464Z,997.20
2022-10-01T06:33:25.438Z,997.21
2022-10-01T06:34:25.427Z,997.20
2022-10-01T06:35:25.442Z,997.17
2022-10-01T06:36:25.401Z,997.20
2022-10-01T06:37:25.406Z,997.20
2022-10-01T06:38:25.387Z,997.21
2022-10-01T06:39:25.419Z,997.21
2022-10-01T06:40:25.353Z,997.15
2022-10-01T06:41:25.358Z,997.19
2022-10-01T06:42:25.359Z,997.20
2022-10-01T06:43:25.343Z,997.15
2022-10-01T06:44:25.325Z,997.19
2022-10-01T06:45:25.321Z,997.21
2022-10-01T06:46:25.291Z,997.20
2022-10-01T06:47:25.292Z,997.16
2022-10-01T06:48:25.274Z,997.20
2022-10-01T06:49:25.298Z,997.17
2022-10-01T06:50:25.255Z,997.16
2022-10-01T06:51:25.251Z,997.15
2022-10-01T06:52:25.220Z,997.15
2022-10-01T06:53:25.258Z,997.09
2022-10-01T06:54:25.200Z,997.16
2022-10-01T06:55:25.260Z,997.19
2022-10-01T06:56:25.173Z,997.16
2022-10-01T06:57:25.186Z,997.23
2022-10-01T06:58:25.168Z,997.17
2022-10-01T06:59:25.169Z,997.19
2022-10-01T07:00:25.151Z,997.19
2022-10-01T07:01:25.226Z,997.22
2022-10-01T07:02:25.211Z,997.22
2022-10-01T07:03:25.135Z,997.22
2022-10-01T07:04:25.138Z,997.21
2022-10-01T07:05:25.103Z,997.21
2022-10-01T07:06:25.113Z,997.22
2022-10-01T07:07:28.206Z,997.25
2022-10-01T07:08:25.062Z,997.22
2022-10-01T07:09:25.058Z,997.24
2022-10-01T07:10:25.071Z,997.27
2022-10-01T07:11:25.040Z,997.28
2022-10-01T07:12:25.022Z,997.25
2022-10-01T07:13:25.002Z,997.23
2022-10-01T07:14:25.033Z,997.25
2022-10-01T07:15:25.000Z,997.28
2022-10-01T07:16:25.021Z,997.30
2022-10-01T07:17:24.967Z,997.33
2022-10-01T07:18:24.949Z,997.35
2022-10-01T07:19:24.948Z,997.40
2022-10-01T07:20:24.923Z,997.39
2022-10-01T07:21:24.942Z,997.39
2022-10-01T07:22:24.916Z,997.43
2022-10-01T07:23:24.895Z,997.47
2022-10-01T07:24:24.868Z,997.54
2022-10-01T07:25:24.881Z,997.52
2022-10-01T07:26:24.871Z,997.48
2022-10-01T07:27:24.858Z,997.47
2022-10-01T07:28:24.920Z,997.43
2022-10-01T07:29:24.850Z,997.43
2022-10-01T07:30:24.869Z,997.43
2022-10-01T07:31:24.867Z,997.47
2022-10-01T07:32:24.803Z,997.47
2022-10-01T07:33:24.805Z,997.46
2022-10-01T07:34:24.771Z,997.50
2022-10-01T07:35:24.781Z,997.53
2022-10-01T07:36:24.747Z,997.54
2022-10-01T07:37:24.747Z,997.55
2022-10-01T07:38:24.718Z,997.58
2022-10-01T07:39:24.727Z,997.58
2022-10-01T07:40:24.724Z,997.60
2022-10-01T07:41:24.819Z,997.57
2022-10-01T07:42:24.719Z,997.59
2022-10-01T07:43:24.700Z,997.58
2022-10-01T07:44:24.661Z,997.57
2022-10-01T07:45:24.711Z,997.62
2022-10-01T07:46:24.641Z,997.63
2022-10-01T07:47:24.641Z,997.57
2022-10-01T07:48:24.623Z,997.58
2022-10-01T07:49:24.623Z,997.61
2022-10-01T07:50:24.614Z,997.62
2022-10-01T07:51:24.581Z,997.62
2022-10-01T07:52:24.586Z,997.63
2022-10-01T07:53:24.577Z,997.62
2022-10-01T07:54:24.616Z,997.64
2022-10-01T07:55:24.568Z,997.63
2022-10-01T07:56:24.527Z,997.66
2022-10-01T07:57:24.534Z,997.65
2022-10-01T07:58:24.512Z,997.67
2022-10-01T07:59:24.512Z,997.66
2022-10-01T08:00:24.585Z,997.62
2022-10-01T08:01:24.606Z,997.64
2022-10-01T08:02:24.524Z,997.65
2022-10-01T08:03:24.486Z,997.66
2022-10-01T08:04:24.449Z,997.61
2022-10-01T08:05:24.430Z,997.65
2022-10-01T08:06:25.728Z,997.67
2022-10-01T08:07:24.430Z,997.71
2022-10-01T08:08:24.398Z,997.69
2022-10-01T08:09:24.402Z,997.74
2022-10-01T08:10:24.390Z,997.74
2022-10-01T08:11:24.395Z,997.76
2022-10-01T08:12:24.384Z,997.73
2022-10-01T08:13:24.363Z,997.74
2022-10-01T08:14:24.330Z,997.74
2022-10-01T08:15:24.339Z,997.78
2022-10-01T08:16:24.332Z,997.74
2022-10-01T08:17:29.181Z,997.76
2022-10-01T08:18:24.298Z,997.76
2022-10-01T08:19:24.291Z,997.78
2022-10-01T08:20:24.281Z,997.79
2022-10-01T08:21:24.265Z,997.80
2022-10-01T08:22:24.278Z,997.82
2022-10-01T08:23:24.248Z,997.83
2022-10-01T08:24:24.245Z,997.84
2022-10-01T08:25:24.217Z,997.87
2022-10-01T08:26:24.224Z,997.85
2022-10-01T08:27:24.219Z,997.88
2022-10-01T08:28:24.211Z,997.85
2022-10-01T08:29:24.216Z,997.86
2022-10-01T08:30:24.185Z,997.88
2022-10-01T08:31:24.242Z,997.87
2022-10-01T08:32:24.145Z,997.93
2022-10-01T08:33:24.160Z,997.94
2022-10-01T08:34:24.128Z,997.96
2022-10-01T08:35:24.153Z,997.97
2022-10-01T08:36:24.147Z,997.99
2022-10-01T08:37:24.137Z,998.03
2022-10-01T08:38:24.079Z,998.05
2022-10-01T08:39:24.095Z,998.04
2022-10-01T08:40:24.065Z,998.09
2022-10-01T08:41:24.088Z,998.08
2022-10-01T08:42:24.036Z,998.13
2022-10-01T08:43:24.060Z,998.15
2022-10-01T08:44:24.030Z,998.18
2022-10-01T08:45:24.034Z,998.25
2022-10-01T08:46:24.055Z,998.27
2022-10-01T08:47:24.004Z,998.27
2022-10-01T08:48:23.980Z,998.30
2022-10-01T08:49:23.972Z,998.32
2022-10-01T08:50:23.977Z,998.33
2022-10-01T08:51:23.959Z,998.34
2022-10-01T08:52:23.928Z,998.35
2022-10-01T08:53:23.969Z,998.38
2022-10-01T08:54:23.921Z,998.38
2022-10-01T08:55:23.909Z,998.36
2022-10-01T08:56:23.898Z,998.34
2022-10-01T08:57:23.900Z,998.35
2022-10-01T08:58:23.882Z,998.36
2022-10-01T08:59:27.334Z,998.39
2022-10-01T09:00:23.864Z,998.38
2022-10-01T09:01:23.902Z,998.37
2022-10-01T09:02:23.847Z,998.34
2022-10-01T09:03:23.855Z,998.34
2022-10-01T09:04:23.932Z,998.33
2022-10-01T09:05:23.807Z,998.33
2022-10-01T09:06:23.803Z,998.36
2022-10-01T09:07:23.795Z,998.35
2022-10-01T09:08:23.814Z,998.36
2022-10-01T09:09:23.778Z,998.37
2022-10-01T09:10:23.775Z,998.37
2022-10-01T09:11:23.739Z,998.38
2022-10-01T09:12:23.731Z,998.39
2022-10-01T09:13:23.754Z,998.42
2022-10-01T09:14:23.701Z,998.46
2022-10-01T09:15:23.713Z,998.45
2022-10-01T09:16:23.749Z,998.48
2022-10-01T09:17:23.679Z,998.46
2022-10-01T09:18:23.685Z,998.48
2022-10-01T09:19:23.655Z,998.52
2022-10-01T09:20:23.709Z,998.53
2022-10-01T09:21:23.637Z,998.54
2022-10-01T09:22:23.654Z,998.56
2022-10-01T09:23:23.615Z,998.60
2022-10-01T09:24:23.620Z,998.58
2022-10-01T09:25:23.606Z,998.59
2022-10-01T09:26:25.740Z,998.60
2022-10-01T09:27:23.558Z,998.58
2022-10-01T09:28:23.686Z,998.58
2022-10-01T09:29:23.559Z,998.59
2022-10-01T09:30:23.538Z,998.59
2022-10-01T09:31:23.566Z,998.59
2022-10-01T09:32:23.527Z,998.60
2022-10-01T09:33:23.502Z,998.62
2022-10-01T09:34:23.512Z,998.59
2022-10-01T09:35:23.511Z,998.59
2022-10-01T09:36:23.500Z,998.59
2022-10-01T09:37:23.466Z,998.59
2022-10-01T09:38:23.458Z,998.62
2022-10-01T09:39:23.474Z,998.66
2022-10-01T09:40:23.443Z,998.66
2022-10-01T09:41:23.455Z,998.69
2022-10-01T09:42:23.441Z,998.67
2022-10-01T09:43:23.397Z,998.73
2022-10-01T09:44:23.385Z,998.74
2022-10-01T09:45:23.387Z,998.78
2022-10-01T09:46:23.439Z,998.75
2022-10-01T09:47:23.366Z,998.78
2022-10-01T09:48:23.355Z,998.80
2022-10-01T09:49:23.352Z,998.78
2022-10-01T09:50:23.354Z,998.81
2022-10-01T09:51:23.321Z,998.79
2022-10-01T09:52:23.335Z,998.84
2022-10-01T09:53:23.289Z,998.78
2022-10-01T09:54:23.333Z,998.78
2022-10-01T09:55:23.287Z,998.81
2022-10-01T09:56:23.272Z,998.80
2022-10-01T09:57:23.262Z,998.81
2022-10-01T09:58:23.257Z,998.80
2022-10-01T09:59:23.248Z,998.74
2022-10-01T10:00:23.225Z,998.85
2022-10-01T10:01:23.213Z,998.84
2022-10-01T10:02:23.358Z,998.86
2022-10-01T10:03:23.283Z,998.88
2022-10-01T10:04:23.206Z,998.88
2022-10-01T10:05:23.171Z,998.90
2022-10-01T10:06:23.159Z,998.87
2022-10-01T10:07:23.191Z,998.86
2022-10-01T10:08:23.181Z,998.87
2022-10-01T10:09:23.195Z,998.85
2022-10-01T10:10:25.770Z,998.89
2022-10-01T10:11:23.087Z,998.89
2022-10-01T10:12:23.110Z,998.86
2022-10-01T10:13:23.142Z,998.90
2022-10-01T10:14:23.065Z,998.88
2022-10-01T10:15:23.091Z,998.90
2022-10-01T10:16:23.098Z,998.89
2022-10-01T10:17:23.048Z,998.92
2022-10-01T10:18:24.047Z,999.00
2022-10-01T10:19:23.019Z,998.93
2022-10-01T10:20:23.025Z,998.94
2022-10-01T10:21:23.011Z,998.95
2022-10-01T10:22:23.011Z,998.94
2022-10-01T10:23:22.993Z,998.96
2022-10-01T10:24:22.985Z,998.94
2022-10-01T10:25:22.943Z,998.96
2022-10-01T10:27:27.666Z,998.99
2022-10-01T10:27:32.639Z,999.00
2022-10-01T10:28:36.479Z,999.01
2022-10-01T10:29:32.589Z,999.02
2022-10-01T10:30:32.571Z,998.99
2022-10-01T10:31:32.656Z,998.99
2022-10-01T10:32:32.552Z,998.99
2022-10-01T10:33:32.572Z,998.98
2022-10-01T10:34:32.535Z,998.97
2022-10-01T10:35:32.547Z,998.95
2022-10-01T10:36:32.739Z,998.97
2022-10-01T10:37:32.507Z,998.98
2022-10-01T10:38:32.513Z,999.02
2022-10-01T10:39:32.533Z,999.00
2022-10-01T10:40:32.517Z,999.02
2022-10-01T10:41:32.818Z,999.03
2022-10-01T10:42:32.463Z,998.99
2022-10-01T10:43:32.470Z,999.05
2022-10-01T10:44:32.408Z,999.01
2022-10-01T10:45:32.462Z,999.00
2022-10-01T10:46:32.495Z,998.98
2022-10-01T10:47:32.410Z,998.99
2022-10-01T10:48:32.386Z,999.00
2022-10-01T10:49:32.392Z,999.04
2022-10-01T10:50:32.364Z,999.06
2022-10-01T10:51:32.784Z,999.04
2022-10-01T10:52:32.353Z,999.08
2022-10-01T10:53:32.380Z,999.08
2022-10-01T10:54:32.394Z,999.11
2022-10-01T10:55:32.546Z,999.12
2022-10-01T10:56:32.603Z,999.13
2022-10-01T10:57:32.305Z,999.17
2022-10-01T10:58:32.265Z,999.17
2022-10-01T10:59:32.295Z,999.18
2022-10-01T11:00:32.244Z,999.15
2022-10-01T11:01:32.594Z,999.22
2022-10-01T11:02:32.308Z,999.24
2022-10-01T11:03:39.404Z,999.22
2022-10-01T11:04:32.199Z,999.26
2022-10-01T11:05:32.234Z,999.26
2022-10-01T11:06:32.406Z,999.27
2022-10-01T11:07:32.208Z,999.30
2022-10-01T11:08:32.168Z,999.30
2022-10-01T11:09:32.158Z,999.29
2022-10-01T11:10:32.153Z,999.29
2022-10-01T11:11:32.142Z,999.32
2022-10-01T11:12:32.112Z,999.33
2022-10-01T11:13:32.128Z,999.37
2022-10-01T11:14:32.100Z,999.38
2022-10-01T11:15:32.182Z,999.42
2022-10-01T11:16:32.579Z,999.41
2022-10-01T11:17:32.087Z,999.41
2022-10-01T11:18:32.057Z,999.43
2022-10-01T11:19:32.079Z,999.41
2022-10-01T11:20:32.067Z,999.40
2022-10-01T11:21:32.069Z,999.48
2022-10-01T11:22:32.027Z,999.56
2022-10-01T11:23:31.999Z,999.61
2022-10-01T11:24:31.980Z,999.62
2022-10-01T11:25:31.997Z,999.60
2022-10-01T11:26:32.257Z,999.56
2022-10-01T11:27:31.955Z,999.63
2022-10-01T11:28:32.007Z,999.63
2022-10-01T11:29:31.974Z,999.70
2022-10-01T11:30:31.936Z,999.71
2022-10-01T11:31:32.008Z,999.74
2022-10-01T11:32:31.894Z,999.72
2022-10-01T11:33:31.932Z,999.76
2022-10-01T11:34:31.899Z,999.72
2022-10-01T11:35:31.866Z,999.75
2022-10-01T11:36:32.273Z,999.76
2022-10-01T11:37:31.915Z,999.78
2022-10-01T11:38:31.833Z,999.80
2022-10-01T11:39:31.857Z,999.71
2022-10-01T11:40:31.851Z,999.66
2022-10-01T11:41:31.867Z,999.69
2022-10-01T11:42:31.803Z,999.69
2022-10-01T11:43:31.823Z,999.74
2022-10-01T11:44:31.786Z,999.76
2022-10-01T11:45:31.794Z,999.78
2022-10-01T11:46:31.995Z,999.81
2022-10-01T11:47:31.781Z,999.81
2022-10-01T11:48:31.808Z,999.82
2022-10-01T11:49:31.760Z,999.81
2022-10-01T11:50:34.184Z,999.73
2022-10-01T11:51:31.738Z,999.74
2022-10-01T11:52:31.706Z,999.72
2022-10-01T11:53:31.709Z,999.71
2022-10-01T11:54:31.696Z,999.70
2022-10-01T11:55:31.692Z,999.67
2022-10-01T11:56:31.882Z,999.67
2022-10-01T11:57:31.656Z,999.65
2022-10-01T11:58:31.637Z,999.63
2022-10-01T11:59:31.634Z,999.62
2022-10-01T12:00:31.613Z,999.63
2022-10-01T12:01:31.654Z,999.66
2022-10-01T12:02:31.577Z,999.66
2022-10-01T12:03:31.606Z,999.68
2022-10-01T12:04:31.591Z,999.72
2022-10-01T12:05:31.587Z,999.73
2022-10-01T12:06:33.936Z,999.76
2022-10-01T12:07:31.542Z,999.78
2022-10-01T12:08:31.535Z,999.80
2022-10-01T12:09:31.519Z,999.81
2022-10-01T12:10:31.486Z,999.82
2022-10-01T12:11:31.501Z,999.82
2022-10-01T12:12:31.516Z,999.83
2022-10-01T12:13:31.490Z,999.85
2022-10-01T12:14:31.471Z,999.85
2022-10-01T12:15:31.489Z,999.86
2022-10-01T12:16:31.541Z,999.89
2022-10-01T12:17:31.459Z,999.91
2022-10-01T12:18:31.450Z,999.90
2022-10-01T12:19:31.462Z,999.95
2022-10-01T12:20:31.422Z,999.96
2022-10-01T12:21:31.415Z,999.99
2022-10-01T12:22:31.385Z,1000.00
2022-10-01T12:23:31.383Z,1000.04
2022-10-01T12:24:31.363Z,1000.05
2022-10-01T12:25:31.369Z,1000.07
2022-10-01T12:26:31.423Z,1000.06
2022-10-01T12:27:31.447Z,1000.08